This is the latest recevied weather packets stored in our database for station/object s55g-5. If no packets are shown the sender has not sent any weather packets the latest 10 day(s).
| Time | Temp. | Humidity | Pressure | Rain* | Wind** | Luminosity | Snow |
|---|---|---|---|---|---|---|---|
| 1777766404 | 10° C | 80% | 1021 hPa | 0 mm | - | - | - |
| 1777765504 | 9.44° C | 81% | 1021.3 hPa | 0 mm | - | - | - |
| 1777764423 | 9.44° C | 81% | 1021.4 hPa | 0 mm | - | - | - |
| 1777763343 | 9.44° C | 81% | 1021.3 hPa | 0 mm | - | - | - |
| 1777762444 | 9.44° C | 84% | 1021.7 hPa | 0 mm | - | - | - |
| 1777757357 | 10.56° C | 80% | 1022.1 hPa | 0 mm | - | - | - |
| 1777756144 | 11.11° C | 79% | 1021.8 hPa | 0 mm | - | - | - |
| 1777755737 | 11.11° C | 79% | 1021.8 hPa | 0 mm | - | - | - |
| 1777752544 | 12.78° C | 71% | 1022.2 hPa | 0 mm | - | - | - |
| 1777751644 | 12.78° C | 72% | 1022.1 hPa | 0 mm | - | - | - |
| 1777750564 | 13.33° C | 69% | 1022 hPa | 0 mm | - | - | - |
| 1777748044 | 15° C | 62% | 1021.8 hPa | 0 mm | - | - | - |
| 1777747637 | 14.44° C | 68% | 1021.7 hPa | 0 mm | - | - | - |
| 1777745884 | 17.22° C | 56% | 1021.8 hPa | 0 mm | - | - | - |
| 1777737604 | 23.33° C | 40% | 1021.7 hPa | 0 mm | - | - | - |
| 1777736703 | 23.89° C | 40% | 1021.6 hPa | 0 mm | - | - | - |
| 1777736297 | 23.89° C | 39% | 1021.7 hPa | 0 mm | - | - | - |
| 1777731484 | 25° C | 39% | 1022.2 hPa | 0 mm | - | - | - |
| 1777730944 | 25° C | 41% | 1022.3 hPa | 0 mm | - | - | - |
| 1777730044 | 25° C | 41% | 1022.3 hPa | 0 mm | - | - | - |
| 1777728964 | 25° C | 40% | 1022.6 hPa | 0 mm | - | - | - |
| 1777723204 | 24.44° C | 34% | 1023.5 hPa | 0 mm | - | - | - |
| 1777718164 | 23.89° C | 34% | 1024.7 hPa | 0 mm | - | - | - |
| 1777714564 | 22.78° C | 35% | 1025.2 hPa | 0 mm | - | - | - |
| 1777710423 | 21.11° C | 44% | 1025.7 hPa | 0 mm | - | - | - |
* Rain latest hour (hover to see other rain measurements)
** Current wind speed in m/s (hover to see current wind gust speed)